sensor_id;sensor_type;location;lat;lon;timestamp;P1;durP1;ratioP1;P2;durP2;ratioP2
1479;SDS011;732;51.698;4.886;2022-08-04T00:01:53;7.07;;;3.73;;
1479;SDS011;732;51.698;4.886;2022-08-04T00:04:36;10.73;;;4.83;;
1479;SDS011;732;51.698;4.886;2022-08-04T00:07:15;8.07;;;4.50;;
1479;SDS011;732;51.698;4.886;2022-08-04T00:10:10;9.13;;;4.70;;
1479;SDS011;732;51.698;4.886;2022-08-04T00:12:40;6.93;;;4.60;;
1479;SDS011;732;51.698;4.886;2022-08-04T00:15:17;6.97;;;4.67;;
1479;SDS011;732;51.698;4.886;2022-08-04T00:17:50;8.67;;;4.73;;
1479;SDS011;732;51.698;4.886;2022-08-04T00:20:28;5.37;;;4.17;;
1479;SDS011;732;51.698;4.886;2022-08-04T00:22:59;8.03;;;4.60;;
1479;SDS011;732;51.698;4.886;2022-08-04T00:25:29;6.47;;;4.40;;
1479;SDS011;732;51.698;4.886;2022-08-04T00:27:59;4.20;;;3.60;;
1479;SDS011;732;51.698;4.886;2022-08-04T00:30:28;7.47;;;3.90;;
1479;SDS011;732;51.698;4.886;2022-08-04T00:32:58;7.50;;;4.50;;
1479;SDS011;732;51.698;4.886;2022-08-04T00:35:28;12.60;;;4.53;;
1479;SDS011;732;51.698;4.886;2022-08-04T00:37:58;7.10;;;4.57;;
1479;SDS011;732;51.698;4.886;2022-08-04T00:40:30;7.87;;;3.90;;
1479;SDS011;732;51.698;4.886;2022-08-04T00:43:09;6.93;;;4.10;;
1479;SDS011;732;51.698;4.886;2022-08-04T00:49:29;10.07;;;4.53;;
1479;SDS011;732;51.698;4.886;2022-08-04T00:52:32;8.37;;;4.10;;
1479;SDS011;732;51.698;4.886;2022-08-04T00:58:22;7.90;;;3.80;;
1479;SDS011;732;51.698;4.886;2022-08-04T01:01:02;9.07;;;4.90;;
1479;SDS011;732;51.698;4.886;2022-08-04T01:03:36;7.53;;;4.03;;
1479;SDS011;732;51.698;4.886;2022-08-04T01:06:20;6.47;;;4.53;;
1479;SDS011;732;51.698;4.886;2022-08-04T01:09:08;7.40;;;4.17;;
1479;SDS011;732;51.698;4.886;2022-08-04T01:12:07;6.17;;;4.23;;
1479;SDS011;732;51.698;4.886;2022-08-04T01:14:59;7.33;;;4.00;;
1479;SDS011;732;51.698;4.886;2022-08-04T01:17:36;6.73;;;4.43;;
1479;SDS011;732;51.698;4.886;2022-08-04T01:20:25;5.03;;;4.23;;
1479;SDS011;732;51.698;4.886;2022-08-04T01:29:26;5.47;;;4.03;;
1479;SDS011;732;51.698;4.886;2022-08-04T01:32:12;6.20;;;3.90;;
1479;SDS011;732;51.698;4.886;2022-08-04T01:34:55;5.90;;;3.83;;
1479;SDS011;732;51.698;4.886;2022-08-04T01:37:33;7.70;;;4.23;;
1479;SDS011;732;51.698;4.886;2022-08-04T01:40:15;7.70;;;4.13;;
1479;SDS011;732;51.698;4.886;2022-08-04T01:42:44;6.53;;;4.30;;
1479;SDS011;732;51.698;4.886;2022-08-04T01:45:16;7.33;;;4.30;;
1479;SDS011;732;51.698;4.886;2022-08-04T01:47:47;8.10;;;4.60;;
1479;SDS011;732;51.698;4.886;2022-08-04T01:50:18;7.63;;;4.20;;
1479;SDS011;732;51.698;4.886;2022-08-04T01:52:49;6.70;;;3.93;;
1479;SDS011;732;51.698;4.886;2022-08-04T01:55:21;5.83;;;3.60;;
1479;SDS011;732;51.698;4.886;2022-08-04T01:58:10;7.27;;;4.67;;
1479;SDS011;732;51.698;4.886;2022-08-04T02:00:43;6.93;;;4.27;;
1479;SDS011;732;51.698;4.886;2022-08-04T02:03:22;6.60;;;4.10;;
1479;SDS011;732;51.698;4.886;2022-08-04T02:06:15;10.37;;;4.33;;
1479;SDS011;732;51.698;4.886;2022-08-04T02:09:02;9.23;;;4.33;;
1479;SDS011;732;51.698;4.886;2022-08-04T02:11:38;5.80;;;4.30;;
1479;SDS011;732;51.698;4.886;2022-08-04T02:14:13;7.57;;;4.40;;
1479;SDS011;732;51.698;4.886;2022-08-04T02:17:04;11.67;;;4.27;;
1479;SDS011;732;51.698;4.886;2022-08-04T02:19:45;6.23;;;4.10;;
1479;SDS011;732;51.698;4.886;2022-08-04T02:22:38;8.70;;;4.03;;
1479;SDS011;732;51.698;4.886;2022-08-04T02:25:16;7.33;;;4.00;;
1479;SDS011;732;51.698;4.886;2022-08-04T02:27:55;7.80;;;4.20;;
1479;SDS011;732;51.698;4.886;2022-08-04T02:30:57;6.20;;;4.07;;
1479;SDS011;732;51.698;4.886;2022-08-04T02:33:37;7.13;;;4.03;;
1479;SDS011;732;51.698;4.886;2022-08-04T02:36:09;5.17;;;3.80;;
1479;SDS011;732;51.698;4.886;2022-08-04T02:38:52;5.67;;;3.60;;
1479;SDS011;732;51.698;4.886;2022-08-04T02:41:24;7.40;;;3.50;;
1479;SDS011;732;51.698;4.886;2022-08-04T02:43:55;7.60;;;4.33;;
1479;SDS011;732;51.698;4.886;2022-08-04T02:46:26;10.37;;;3.90;;
1479;SDS011;732;51.698;4.886;2022-08-04T02:48:57;7.73;;;4.57;;
1479;SDS011;732;51.698;4.886;2022-08-04T02:51:31;7.30;;;4.37;;
1479;SDS011;732;51.698;4.886;2022-08-04T02:54:02;7.57;;;3.90;;
1479;SDS011;732;51.698;4.886;2022-08-04T02:56:35;10.30;;;4.30;;
1479;SDS011;732;51.698;4.886;2022-08-04T02:59:05;6.83;;;4.07;;
1479;SDS011;732;51.698;4.886;2022-08-04T03:01:36;6.27;;;3.50;;
1479;SDS011;732;51.698;4.886;2022-08-04T03:04:33;5.60;;;4.30;;
1479;SDS011;732;51.698;4.886;2022-08-04T03:10:30;6.30;;;3.40;;
1479;SDS011;732;51.698;4.886;2022-08-04T03:13:37;17.73;;;4.67;;
1479;SDS011;732;51.698;4.886;2022-08-04T03:19:50;8.97;;;5.00;;
1479;SDS011;732;51.698;4.886;2022-08-04T03:22:58;8.67;;;5.07;;
1479;SDS011;732;51.698;4.886;2022-08-04T03:29:25;11.03;;;5.60;;
1479;SDS011;732;51.698;4.886;2022-08-04T03:35:39;11.90;;;6.13;;
1479;SDS011;732;51.698;4.886;2022-08-04T03:38:54;7.23;;;5.23;;
1479;SDS011;732;51.698;4.886;2022-08-04T03:42:13;8.03;;;5.50;;
1479;SDS011;732;51.698;4.886;2022-08-04T03:51:33;13.37;;;5.30;;
1479;SDS011;732;51.698;4.886;2022-08-04T03:57:44;9.13;;;4.50;;
1479;SDS011;732;51.698;4.886;2022-08-04T04:00:29;9.93;;;4.77;;
1479;SDS011;732;51.698;4.886;2022-08-04T04:03:12;9.60;;;5.37;;
1479;SDS011;732;51.698;4.886;2022-08-04T04:10:12;9.03;;;4.77;;
1479;SDS011;732;51.698;4.886;2022-08-04T04:13:08;5.93;;;4.50;;
1479;SDS011;732;51.698;4.886;2022-08-04T04:19:16;11.30;;;4.80;;
1479;SDS011;732;51.698;4.886;2022-08-04T04:22:07;9.00;;;5.30;;
1479;SDS011;732;51.698;4.886;2022-08-04T04:24:55;7.00;;;4.77;;
1479;SDS011;732;51.698;4.886;2022-08-04T04:27:39;7.00;;;4.33;;
1479;SDS011;732;51.698;4.886;2022-08-04T04:30:21;10.50;;;4.03;;
1479;SDS011;732;51.698;4.886;2022-08-04T04:33:04;6.10;;;3.40;;
1479;SDS011;732;51.698;4.886;2022-08-04T04:35:51;8.90;;;4.40;;
1479;SDS011;732;51.698;4.886;2022-08-04T04:38:33;6.03;;;3.63;;
1479;SDS011;732;51.698;4.886;2022-08-04T04:41:39;8.50;;;3.37;;
1479;SDS011;732;51.698;4.886;2022-08-04T04:44:42;5.83;;;3.30;;
1479;SDS011;732;51.698;4.886;2022-08-04T04:47:32;6.17;;;2.97;;
1479;SDS011;732;51.698;4.886;2022-08-04T04:50:35;8.30;;;3.30;;
1479;SDS011;732;51.698;4.886;2022-08-04T04:53:20;10.00;;;3.17;;
1479;SDS011;732;51.698;4.886;2022-08-04T04:56:07;8.87;;;3.00;;
1479;SDS011;732;51.698;4.886;2022-08-04T04:58:45;11.90;;;2.67;;
1479;SDS011;732;51.698;4.886;2022-08-04T05:01:33;4.57;;;2.70;;
1479;SDS011;732;51.698;4.886;2022-08-04T05:04:38;9.00;;;3.63;;
1479;SDS011;732;51.698;4.886;2022-08-04T05:11:16;8.20;;;3.13;;
1479;SDS011;732;51.698;4.886;2022-08-04T05:14:49;7.33;;;3.03;;
1479;SDS011;732;51.698;4.886;2022-08-04T05:17:20;7.80;;;2.83;;
1479;SDS011;732;51.698;4.886;2022-08-04T05:19:56;4.20;;;2.43;;
1479;SDS011;732;51.698;4.886;2022-08-04T05:22:31;7.80;;;3.00;;
1479;SDS011;732;51.698;4.886;2022-08-04T05:25:07;5.60;;;2.80;;
1479;SDS011;732;51.698;4.886;2022-08-04T05:27:48;10.17;;;2.70;;
1479;SDS011;732;51.698;4.886;2022-08-04T05:30:23;5.03;;;2.90;;
1479;SDS011;732;51.698;4.886;2022-08-04T05:32:54;6.50;;;2.70;;
1479;SDS011;732;51.698;4.886;2022-08-04T05:35:30;3.43;;;2.90;;
1479;SDS011;732;51.698;4.886;2022-08-04T05:38:25;4.70;;;2.70;;
1479;SDS011;732;51.698;4.886;2022-08-04T05:41:00;9.43;;;3.00;;
1479;SDS011;732;51.698;4.886;2022-08-04T05:43:31;7.33;;;3.63;;
1479;SDS011;732;51.698;4.886;2022-08-04T05:46:00;8.97;;;3.37;;
1479;SDS011;732;51.698;4.886;2022-08-04T05:48:31;6.30;;;3.47;;
1479;SDS011;732;51.698;4.886;2022-08-04T05:51:00;6.70;;;4.47;;
1479;SDS011;732;51.698;4.886;2022-08-04T05:53:31;15.03;;;4.80;;
1479;SDS011;732;51.698;4.886;2022-08-04T05:56:01;8.33;;;3.73;;
1479;SDS011;732;51.698;4.886;2022-08-04T05:58:33;6.57;;;4.07;;
1479;SDS011;732;51.698;4.886;2022-08-04T06:01:02;15.37;;;3.70;;
1479;SDS011;732;51.698;4.886;2022-08-04T06:03:32;7.07;;;3.70;;
1479;SDS011;732;51.698;4.886;2022-08-04T06:06:02;11.07;;;4.37;;
1479;SDS011;732;51.698;4.886;2022-08-04T06:08:31;6.20;;;3.30;;
1479;SDS011;732;51.698;4.886;2022-08-04T06:11:02;9.63;;;3.93;;
1479;SDS011;732;51.698;4.886;2022-08-04T06:13:35;5.53;;;3.73;;
1479;SDS011;732;51.698;4.886;2022-08-04T06:16:16;9.07;;;4.10;;
1479;SDS011;732;51.698;4.886;2022-08-04T06:18:57;6.67;;;2.97;;
1479;SDS011;732;51.698;4.886;2022-08-04T06:21:51;6.07;;;3.40;;
1479;SDS011;732;51.698;4.886;2022-08-04T06:24:23;9.47;;;3.47;;
1479;SDS011;732;51.698;4.886;2022-08-04T06:26:55;7.30;;;4.03;;
1479;SDS011;732;51.698;4.886;2022-08-04T06:29:25;12.50;;;3.87;;
1479;SDS011;732;51.698;4.886;2022-08-04T06:31:59;8.73;;;3.63;;
1479;SDS011;732;51.698;4.886;2022-08-04T06:34:59;9.20;;;4.10;;
1479;SDS011;732;51.698;4.886;2022-08-04T06:37:29;8.67;;;3.77;;
1479;SDS011;732;51.698;4.886;2022-08-04T06:40:09;6.80;;;4.00;;
1479;SDS011;732;51.698;4.886;2022-08-04T06:42:55;8.77;;;4.37;;
1479;SDS011;732;51.698;4.886;2022-08-04T06:45:26;5.47;;;3.50;;
1479;SDS011;732;51.698;4.886;2022-08-04T06:47:55;12.10;;;4.17;;
1479;SDS011;732;51.698;4.886;2022-08-04T06:50:25;7.93;;;3.90;;
1479;SDS011;732;51.698;4.886;2022-08-04T06:53:15;7.40;;;3.93;;
1479;SDS011;732;51.698;4.886;2022-08-04T06:55:45;8.73;;;3.83;;
1479;SDS011;732;51.698;4.886;2022-08-04T06:58:15;7.70;;;4.00;;
1479;SDS011;732;51.698;4.886;2022-08-04T07:00:47;10.70;;;4.30;;
1479;SDS011;732;51.698;4.886;2022-08-04T07:03:16;7.33;;;4.30;;
1479;SDS011;732;51.698;4.886;2022-08-04T07:05:47;10.70;;;4.33;;
1479;SDS011;732;51.698;4.886;2022-08-04T07:08:17;13.53;;;4.80;;
1479;SDS011;732;51.698;4.886;2022-08-04T07:10:47;11.00;;;4.47;;
1479;SDS011;732;51.698;4.886;2022-08-04T07:13:16;6.83;;;3.93;;
1479;SDS011;732;51.698;4.886;2022-08-04T07:15:48;6.27;;;3.93;;
1479;SDS011;732;51.698;4.886;2022-08-04T07:18:17;9.00;;;4.17;;
1479;SDS011;732;51.698;4.886;2022-08-04T07:20:46;11.23;;;3.93;;
1479;SDS011;732;51.698;4.886;2022-08-04T07:23:15;7.83;;;4.00;;
1479;SDS011;732;51.698;4.886;2022-08-04T07:25:49;8.90;;;4.10;;
1479;SDS011;732;51.698;4.886;2022-08-04T07:28:38;10.40;;;4.03;;
1479;SDS011;732;51.698;4.886;2022-08-04T07:31:10;10.57;;;4.00;;
1479;SDS011;732;51.698;4.886;2022-08-04T07:33:59;8.73;;;3.70;;
1479;SDS011;732;51.698;4.886;2022-08-04T07:36:46;10.70;;;4.13;;
1479;SDS011;732;51.698;4.886;2022-08-04T07:39:21;7.00;;;4.10;;
1479;SDS011;732;51.698;4.886;2022-08-04T07:41:55;7.10;;;4.10;;
1479;SDS011;732;51.698;4.886;2022-08-04T07:44:27;7.20;;;3.50;;
1479;SDS011;732;51.698;4.886;2022-08-04T07:46:58;8.07;;;3.70;;
1479;SDS011;732;51.698;4.886;2022-08-04T07:49:28;6.80;;;4.00;;
1479;SDS011;732;51.698;4.886;2022-08-04T07:52:17;7.77;;;3.43;;
1479;SDS011;732;51.698;4.886;2022-08-04T07:54:46;7.23;;;3.70;;
1479;SDS011;732;51.698;4.886;2022-08-04T07:57:17;6.17;;;3.67;;
1479;SDS011;732;51.698;4.886;2022-08-04T08:00:06;6.50;;;3.67;;
1479;SDS011;732;51.698;4.886;2022-08-04T08:02:40;6.43;;;3.70;;
1479;SDS011;732;51.698;4.886;2022-08-04T08:05:11;10.53;;;3.40;;
1479;SDS011;732;51.698;4.886;2022-08-04T08:07:44;9.63;;;3.30;;
1479;SDS011;732;51.698;4.886;2022-08-04T08:10:19;8.63;;;3.30;;
1479;SDS011;732;51.698;4.886;2022-08-04T08:12:49;10.57;;;3.20;;
1479;SDS011;732;51.698;4.886;2022-08-04T08:15:19;9.70;;;3.80;;
1479;SDS011;732;51.698;4.886;2022-08-04T08:17:49;6.23;;;3.03;;
1479;SDS011;732;51.698;4.886;2022-08-04T08:20:26;6.73;;;3.60;;
1479;SDS011;732;51.698;4.886;2022-08-04T08:22:57;7.20;;;2.90;;
1479;SDS011;732;51.698;4.886;2022-08-04T08:25:28;8.57;;;3.70;;
1479;SDS011;732;51.698;4.886;2022-08-04T08:27:58;5.17;;;3.40;;
1479;SDS011;732;51.698;4.886;2022-08-04T08:30:29;6.43;;;2.80;;
1479;SDS011;732;51.698;4.886;2022-08-04T08:33:02;8.40;;;3.70;;
1479;SDS011;732;51.698;4.886;2022-08-04T08:35:37;7.10;;;2.80;;
1479;SDS011;732;51.698;4.886;2022-08-04T08:38:26;6.20;;;2.93;;
1479;SDS011;732;51.698;4.886;2022-08-04T08:51:26;7.87;;;2.70;;
1479;SDS011;732;51.698;4.886;2022-08-04T08:57:25;6.60;;;3.00;;
1479;SDS011;732;51.698;4.886;2022-08-04T09:00:27;6.07;;;2.47;;
1479;SDS011;732;51.698;4.886;2022-08-04T09:03:13;6.80;;;2.37;;
1479;SDS011;732;51.698;4.886;2022-08-04T09:06:08;9.07;;;3.17;;
1479;SDS011;732;51.698;4.886;2022-08-04T09:09:00;4.03;;;2.20;;
1479;SDS011;732;51.698;4.886;2022-08-04T09:11:47;5.10;;;2.30;;
1479;SDS011;732;51.698;4.886;2022-08-04T09:14:32;5.27;;;2.60;;
1479;SDS011;732;51.698;4.886;2022-08-04T09:17:10;5.70;;;2.60;;
1479;SDS011;732;51.698;4.886;2022-08-04T09:19:56;8.77;;;3.00;;
1479;SDS011;732;51.698;4.886;2022-08-04T09:22:35;9.70;;;2.37;;
1479;SDS011;732;51.698;4.886;2022-08-04T09:25:12;5.63;;;3.40;;
1479;SDS011;732;51.698;4.886;2022-08-04T09:27:51;6.33;;;3.20;;
1479;SDS011;732;51.698;4.886;2022-08-04T09:30:22;8.20;;;3.13;;
1479;SDS011;732;51.698;4.886;2022-08-04T09:33:03;4.83;;;2.47;;
1479;SDS011;732;51.698;4.886;2022-08-04T09:36:06;10.17;;;2.90;;
1479;SDS011;732;51.698;4.886;2022-08-04T09:38:59;5.13;;;2.70;;
1479;SDS011;732;51.698;4.886;2022-08-04T09:41:40;9.70;;;3.10;;
1479;SDS011;732;51.698;4.886;2022-08-04T09:44:26;4.43;;;2.73;;
1479;SDS011;732;51.698;4.886;2022-08-04T09:47:23;9.20;;;3.40;;
1479;SDS011;732;51.698;4.886;2022-08-04T09:50:16;4.20;;;2.30;;
1479;SDS011;732;51.698;4.886;2022-08-04T09:53:02;5.53;;;2.43;;
1479;SDS011;732;51.698;4.886;2022-08-04T09:55:59;6.40;;;2.27;;
1479;SDS011;732;51.698;4.886;2022-08-04T09:58:48;4.80;;;2.47;;
1479;SDS011;732;51.698;4.886;2022-08-04T10:01:24;4.40;;;2.60;;
1479;SDS011;732;51.698;4.886;2022-08-04T10:03:58;5.30;;;2.30;;
1479;SDS011;732;51.698;4.886;2022-08-04T10:06:38;5.03;;;2.47;;
1479;SDS011;732;51.698;4.886;2022-08-04T10:09:32;6.30;;;2.97;;
1479;SDS011;732;51.698;4.886;2022-08-04T10:12:25;2.87;;;2.60;;
1479;SDS011;732;51.698;4.886;2022-08-04T10:15:05;6.20;;;2.80;;
1479;SDS011;732;51.698;4.886;2022-08-04T10:20:52;8.93;;;3.07;;
1479;SDS011;732;51.698;4.886;2022-08-04T10:23:45;6.33;;;2.70;;
1479;SDS011;732;51.698;4.886;2022-08-04T10:26:29;7.00;;;3.43;;
1479;SDS011;732;51.698;4.886;2022-08-04T10:29:06;9.63;;;4.13;;
1479;SDS011;732;51.698;4.886;2022-08-04T10:31:42;9.33;;;3.27;;
1479;SDS011;732;51.698;4.886;2022-08-04T10:34:19;7.07;;;3.10;;
1479;SDS011;732;51.698;4.886;2022-08-04T10:36:52;6.60;;;3.60;;
1479;SDS011;732;51.698;4.886;2022-08-04T10:39:31;6.37;;;2.83;;
1479;SDS011;732;51.698;4.886;2022-08-04T10:42:34;9.63;;;3.60;;
1479;SDS011;732;51.698;4.886;2022-08-04T10:45:13;6.73;;;2.77;;
1479;SDS011;732;51.698;4.886;2022-08-04T10:47:50;7.60;;;3.33;;
1479;SDS011;732;51.698;4.886;2022-08-04T10:50:27;12.17;;;2.80;;
1479;SDS011;732;51.698;4.886;2022-08-04T10:52:58;4.60;;;2.57;;
1479;SDS011;732;51.698;4.886;2022-08-04T10:55:35;3.63;;;2.80;;
1479;SDS011;732;51.698;4.886;2022-08-04T10:58:35;6.23;;;2.53;;
1479;SDS011;732;51.698;4.886;2022-08-04T11:01:16;5.03;;;3.13;;
1479;SDS011;732;51.698;4.886;2022-08-04T11:04:14;4.30;;;3.13;;
1479;SDS011;732;51.698;4.886;2022-08-04T11:06:53;4.73;;;2.90;;
1479;SDS011;732;51.698;4.886;2022-08-04T11:09:24;6.03;;;2.50;;
1479;SDS011;732;51.698;4.886;2022-08-04T11:11:57;5.27;;;2.67;;
1479;SDS011;732;51.698;4.886;2022-08-04T11:14:44;4.20;;;2.80;;
1479;SDS011;732;51.698;4.886;2022-08-04T11:17:21;5.87;;;2.67;;
1479;SDS011;732;51.698;4.886;2022-08-04T11:19:56;7.57;;;3.20;;
1479;SDS011;732;51.698;4.886;2022-08-04T11:22:57;5.80;;;2.93;;
1479;SDS011;732;51.698;4.886;2022-08-04T11:25:35;9.13;;;3.23;;
1479;SDS011;732;51.698;4.886;2022-08-04T11:28:21;4.67;;;2.60;;
1479;SDS011;732;51.698;4.886;2022-08-04T11:31:02;9.20;;;3.40;;
1479;SDS011;732;51.698;4.886;2022-08-04T11:33:36;6.43;;;2.60;;
1479;SDS011;732;51.698;4.886;2022-08-04T11:36:15;5.30;;;3.03;;
1479;SDS011;732;51.698;4.886;2022-08-04T11:38:55;5.20;;;3.03;;
1479;SDS011;732;51.698;4.886;2022-08-04T11:41:36;6.23;;;3.20;;
1479;SDS011;732;51.698;4.886;2022-08-04T11:44:15;5.80;;;3.10;;
1479;SDS011;732;51.698;4.886;2022-08-04T11:46:53;6.23;;;2.90;;
1479;SDS011;732;51.698;4.886;2022-08-04T11:49:32;5.77;;;3.33;;
1479;SDS011;732;51.698;4.886;2022-08-04T11:52:22;6.40;;;3.47;;
1479;SDS011;732;51.698;4.886;2022-08-04T11:54:54;7.80;;;3.73;;
1479;SDS011;732;51.698;4.886;2022-08-04T11:57:24;5.27;;;3.80;;
1479;SDS011;732;51.698;4.886;2022-08-04T12:00:03;3.33;;;2.90;;
1479;SDS011;732;51.698;4.886;2022-08-04T12:05:42;4.47;;;2.97;;
1479;SDS011;732;51.698;4.886;2022-08-04T12:08:24;7.47;;;3.23;;
1479;SDS011;732;51.698;4.886;2022-08-04T12:11:10;5.53;;;3.23;;
1479;SDS011;732;51.698;4.886;2022-08-04T12:13:56;3.60;;;2.77;;
1479;SDS011;732;51.698;4.886;2022-08-04T12:16:35;6.47;;;3.20;;
1479;SDS011;732;51.698;4.886;2022-08-04T12:19:16;6.83;;;3.30;;
1479;SDS011;732;51.698;4.886;2022-08-04T12:21:58;4.90;;;2.87;;
1479;SDS011;732;51.698;4.886;2022-08-04T12:24:36;7.27;;;2.80;;
1479;SDS011;732;51.698;4.886;2022-08-04T12:27:12;4.97;;;2.53;;
1479;SDS011;732;51.698;4.886;2022-08-04T12:29:56;5.53;;;2.93;;
1479;SDS011;732;51.698;4.886;2022-08-04T12:32:47;2.87;;;2.57;;
1479;SDS011;732;51.698;4.886;2022-08-04T12:35:24;4.40;;;2.67;;
1479;SDS011;732;51.698;4.886;2022-08-04T12:38:04;4.63;;;3.20;;
1479;SDS011;732;51.698;4.886;2022-08-04T12:40:36;5.97;;;2.40;;
1479;SDS011;732;51.698;4.886;2022-08-04T12:43:12;4.80;;;2.77;;
1479;SDS011;732;51.698;4.886;2022-08-04T12:45:48;3.90;;;2.37;;
1479;SDS011;732;51.698;4.886;2022-08-04T12:48:20;4.13;;;2.73;;
1479;SDS011;732;51.698;4.886;2022-08-04T12:50:51;3.67;;;2.57;;
1479;SDS011;732;51.698;4.886;2022-08-04T12:53:25;5.27;;;3.60;;
1479;SDS011;732;51.698;4.886;2022-08-04T12:56:16;8.20;;;3.40;;
1479;SDS011;732;51.698;4.886;2022-08-04T12:58:52;4.90;;;3.07;;
1479;SDS011;732;51.698;4.886;2022-08-04T13:01:38;5.87;;;2.50;;
1479;SDS011;732;51.698;4.886;2022-08-04T13:04:35;4.60;;;2.90;;
1479;SDS011;732;51.698;4.886;2022-08-04T13:07:18;6.40;;;3.20;;
1479;SDS011;732;51.698;4.886;2022-08-04T13:09:52;8.73;;;3.03;;
1479;SDS011;732;51.698;4.886;2022-08-04T13:12:22;5.10;;;3.10;;
1479;SDS011;732;51.698;4.886;2022-08-04T13:14:59;6.13;;;3.30;;
1479;SDS011;732;51.698;4.886;2022-08-04T13:17:45;8.60;;;3.03;;
1479;SDS011;732;51.698;4.886;2022-08-04T13:20:23;7.53;;;3.37;;
1479;SDS011;732;51.698;4.886;2022-08-04T13:23:05;4.43;;;2.90;;
1479;SDS011;732;51.698;4.886;2022-08-04T13:25:40;5.00;;;2.93;;
1479;SDS011;732;51.698;4.886;2022-08-04T13:28:31;6.73;;;2.90;;
1479;SDS011;732;51.698;4.886;2022-08-04T13:31:01;6.83;;;3.43;;
1479;SDS011;732;51.698;4.886;2022-08-04T13:33:35;5.23;;;2.50;;
1479;SDS011;732;51.698;4.886;2022-08-04T13:36:08;4.60;;;2.80;;
1479;SDS011;732;51.698;4.886;2022-08-04T13:38:38;5.57;;;3.30;;
1479;SDS011;732;51.698;4.886;2022-08-04T13:41:17;4.77;;;2.70;;
1479;SDS011;732;51.698;4.886;2022-08-04T13:43:47;3.27;;;2.37;;
1479;SDS011;732;51.698;4.886;2022-08-04T13:46:39;7.43;;;3.00;;
1479;SDS011;732;51.698;4.886;2022-08-04T13:49:16;5.20;;;2.83;;
1479;SDS011;732;51.698;4.886;2022-08-04T13:52:06;5.97;;;3.17;;
1479;SDS011;732;51.698;4.886;2022-08-04T13:54:38;5.27;;;3.53;;
1479;SDS011;732;51.698;4.886;2022-08-04T13:57:11;4.53;;;3.27;;
1479;SDS011;732;51.698;4.886;2022-08-04T13:59:46;4.97;;;2.93;;
1479;SDS011;732;51.698;4.886;2022-08-04T14:02:23;7.33;;;3.20;;
1479;SDS011;732;51.698;4.886;2022-08-04T14:05:00;8.90;;;3.80;;
1479;SDS011;732;51.698;4.886;2022-08-04T14:07:44;5.10;;;3.97;;
1479;SDS011;732;51.698;4.886;2022-08-04T14:10:17;5.93;;;3.50;;
1479;SDS011;732;51.698;4.886;2022-08-04T14:12:48;5.63;;;3.37;;
1479;SDS011;732;51.698;4.886;2022-08-04T14:15:29;5.87;;;3.53;;
1479;SDS011;732;51.698;4.886;2022-08-04T14:18:22;7.13;;;3.57;;
1479;SDS011;732;51.698;4.886;2022-08-04T14:21:05;6.43;;;3.20;;
1479;SDS011;732;51.698;4.886;2022-08-04T14:23:37;5.23;;;3.50;;
1479;SDS011;732;51.698;4.886;2022-08-04T14:26:18;9.40;;;3.63;;
1479;SDS011;732;51.698;4.886;2022-08-04T14:29:10;5.33;;;3.70;;
1479;SDS011;732;51.698;4.886;2022-08-04T14:31:59;4.67;;;3.57;;
1479;SDS011;732;51.698;4.886;2022-08-04T14:34:39;4.80;;;3.03;;
1479;SDS011;732;51.698;4.886;2022-08-04T14:37:11;9.13;;;3.00;;
1479;SDS011;732;51.698;4.886;2022-08-04T14:39:46;5.63;;;3.70;;
1479;SDS011;732;51.698;4.886;2022-08-04T14:42:38;4.50;;;3.13;;
1479;SDS011;732;51.698;4.886;2022-08-04T14:45:10;5.90;;;3.47;;
1479;SDS011;732;51.698;4.886;2022-08-04T14:47:42;5.23;;;3.10;;
1479;SDS011;732;51.698;4.886;2022-08-04T14:50:18;7.60;;;2.70;;
1479;SDS011;732;51.698;4.886;2022-08-04T14:53:01;3.60;;;3.30;;
1479;SDS011;732;51.698;4.886;2022-08-04T14:55:31;5.00;;;2.80;;
1479;SDS011;732;51.698;4.886;2022-08-04T14:58:02;4.90;;;2.57;;
1479;SDS011;732;51.698;4.886;2022-08-04T15:00:54;5.83;;;2.90;;
1479;SDS011;732;51.698;4.886;2022-08-04T15:03:25;5.37;;;2.33;;
1479;SDS011;732;51.698;4.886;2022-08-04T15:05:56;3.93;;;2.10;;
1479;SDS011;732;51.698;4.886;2022-08-04T15:08:36;4.77;;;2.30;;
1479;SDS011;732;51.698;4.886;2022-08-04T15:11:10;3.83;;;2.10;;
1479;SDS011;732;51.698;4.886;2022-08-04T15:13:49;4.60;;;2.47;;
1479;SDS011;732;51.698;4.886;2022-08-04T15:16:20;9.63;;;2.10;;
1479;SDS011;732;51.698;4.886;2022-08-04T15:18:51;4.17;;;2.20;;
1479;SDS011;732;51.698;4.886;2022-08-04T15:21:23;3.03;;;2.00;;
1479;SDS011;732;51.698;4.886;2022-08-04T15:23:54;3.30;;;2.50;;
1479;SDS011;732;51.698;4.886;2022-08-04T15:26:28;4.70;;;2.00;;
1479;SDS011;732;51.698;4.886;2022-08-04T15:29:09;4.13;;;2.00;;
1479;SDS011;732;51.698;4.886;2022-08-04T15:31:44;3.80;;;2.57;;
1479;SDS011;732;51.698;4.886;2022-08-04T15:34:43;2.50;;;2.20;;
1479;SDS011;732;51.698;4.886;2022-08-04T15:37:15;3.60;;;2.50;;
1479;SDS011;732;51.698;4.886;2022-08-04T15:39:54;4.60;;;2.47;;
1479;SDS011;732;51.698;4.886;2022-08-04T15:42:29;5.27;;;2.50;;
1479;SDS011;732;51.698;4.886;2022-08-04T15:45:03;5.70;;;2.63;;
1479;SDS011;732;51.698;4.886;2022-08-04T15:51:03;7.23;;;2.33;;
1479;SDS011;732;51.698;4.886;2022-08-04T15:56:54;6.87;;;2.57;;
1479;SDS011;732;51.698;4.886;2022-08-04T16:02:41;8.37;;;2.63;;
1479;SDS011;732;51.698;4.886;2022-08-04T16:08:11;3.90;;;2.40;;
1479;SDS011;732;51.698;4.886;2022-08-04T16:10:45;6.23;;;2.30;;
1479;SDS011;732;51.698;4.886;2022-08-04T16:13:16;7.70;;;2.47;;
1479;SDS011;732;51.698;4.886;2022-08-04T16:15:48;5.53;;;2.63;;
1479;SDS011;732;51.698;4.886;2022-08-04T16:18:20;4.27;;;2.67;;
1479;SDS011;732;51.698;4.886;2022-08-04T16:21:16;8.77;;;2.90;;
1479;SDS011;732;51.698;4.886;2022-08-04T16:26:49;4.70;;;2.37;;
1479;SDS011;732;51.698;4.886;2022-08-04T16:32:17;5.13;;;2.77;;
1479;SDS011;732;51.698;4.886;2022-08-04T16:34:52;4.70;;;2.50;;
1479;SDS011;732;51.698;4.886;2022-08-04T16:37:36;3.90;;;1.93;;
1479;SDS011;732;51.698;4.886;2022-08-04T16:40:28;5.30;;;2.83;;
1479;SDS011;732;51.698;4.886;2022-08-04T16:43:05;6.53;;;2.50;;
1479;SDS011;732;51.698;4.886;2022-08-04T16:48:24;4.30;;;2.30;;
1479;SDS011;732;51.698;4.886;2022-08-04T16:50:58;6.40;;;2.30;;
1479;SDS011;732;51.698;4.886;2022-08-04T16:53:36;3.33;;;2.30;;
1479;SDS011;732;51.698;4.886;2022-08-04T16:56:29;3.90;;;2.20;;
1479;SDS011;732;51.698;4.886;2022-08-04T16:59:04;7.53;;;2.30;;
1479;SDS011;732;51.698;4.886;2022-08-04T17:01:35;4.17;;;2.10;;
1479;SDS011;732;51.698;4.886;2022-08-04T17:04:04;5.80;;;2.50;;
1479;SDS011;732;51.698;4.886;2022-08-04T17:06:34;4.83;;;2.43;;
1479;SDS011;732;51.698;4.886;2022-08-04T17:09:08;5.60;;;3.30;;
1479;SDS011;732;51.698;4.886;2022-08-04T17:11:39;5.67;;;2.97;;
1479;SDS011;732;51.698;4.886;2022-08-04T17:14:09;3.23;;;2.60;;
1479;SDS011;732;51.698;4.886;2022-08-04T17:16:38;6.87;;;3.60;;
1479;SDS011;732;51.698;4.886;2022-08-04T17:19:09;9.53;;;3.80;;
1479;SDS011;732;51.698;4.886;2022-08-04T17:21:52;3.13;;;2.00;;
1479;SDS011;732;51.698;4.886;2022-08-04T17:24:32;5.77;;;2.00;;
1479;SDS011;732;51.698;4.886;2022-08-04T17:27:03;3.60;;;2.03;;
1479;SDS011;732;51.698;4.886;2022-08-04T17:29:53;3.70;;;2.40;;
1479;SDS011;732;51.698;4.886;2022-08-04T17:32:22;5.43;;;2.13;;
1479;SDS011;732;51.698;4.886;2022-08-04T17:34:52;4.93;;;2.60;;
1479;SDS011;732;51.698;4.886;2022-08-04T17:37:24;6.83;;;2.40;;
1479;SDS011;732;51.698;4.886;2022-08-04T17:40:15;7.93;;;3.00;;
1479;SDS011;732;51.698;4.886;2022-08-04T17:43:00;13.07;;;6.50;;
1479;SDS011;732;51.698;4.886;2022-08-04T17:48:56;8.17;;;3.83;;
1479;SDS011;732;51.698;4.886;2022-08-04T17:51:30;8.03;;;2.60;;
1479;SDS011;732;51.698;4.886;2022-08-04T17:54:28;3.83;;;2.00;;
1479;SDS011;732;51.698;4.886;2022-08-04T17:57:15;5.80;;;2.40;;
1479;SDS011;732;51.698;4.886;2022-08-04T17:59:50;8.97;;;2.57;;
1479;SDS011;732;51.698;4.886;2022-08-04T18:02:26;11.63;;;4.50;;
1479;SDS011;732;51.698;4.886;2022-08-04T18:05:02;13.20;;;6.07;;
1479;SDS011;732;51.698;4.886;2022-08-04T18:07:39;6.77;;;3.40;;
1479;SDS011;732;51.698;4.886;2022-08-04T18:10:36;11.53;;;4.77;;
1479;SDS011;732;51.698;4.886;2022-08-04T18:13:24;6.80;;;3.20;;
1479;SDS011;732;51.698;4.886;2022-08-04T18:16:00;11.60;;;4.47;;
1479;SDS011;732;51.698;4.886;2022-08-04T18:18:38;4.73;;;2.60;;
1479;SDS011;732;51.698;4.886;2022-08-04T18:21:14;6.90;;;2.17;;